createdAt,value
2022-10-20T00:01:20.539Z,59.81
2022-10-20T00:03:49.854Z,60.24
2022-10-20T00:06:23.591Z,60.83
2022-10-20T00:08:52.873Z,62.14
2022-10-20T00:11:22.933Z,63.39
2022-10-20T00:13:53.501Z,63.97
2022-10-20T00:16:22.794Z,64.13
2022-10-20T00:18:51.754Z,63.46
2022-10-20T00:21:24.865Z,62.80
2022-10-20T00:23:53.623Z,62.14
2022-10-20T00:26:25.098Z,61.17
2022-10-20T00:28:54.592Z,60.65
2022-10-20T00:31:23.972Z,60.47
2022-10-20T00:33:52.945Z,59.44
2022-10-20T00:36:22.756Z,58.30
2022-10-20T00:38:51.577Z,58.42
2022-10-20T00:41:21.825Z,58.94
2022-10-20T00:43:54.715Z,59.49
2022-10-20T00:46:40.614Z,59.92
2022-10-20T00:49:20.880Z,60.28
2022-10-20T00:51:50.841Z,61.00
2022-10-20T00:54:27.431Z,62.59
2022-10-20T00:56:57.640Z,64.22
2022-10-20T00:59:33.313Z,64.46
2022-10-20T01:02:02.542Z,63.77
2022-10-20T01:04:32.271Z,63.02
2022-10-20T01:07:00.933Z,62.38
2022-10-20T01:09:29.753Z,62.02
2022-10-20T01:12:08.660Z,61.56
2022-10-20T01:15:03.377Z,61.06
2022-10-20T01:17:55.721Z,61.17
2022-10-20T01:20:36.887Z,59.85
2022-10-20T01:23:25.762Z,58.40
2022-10-20T01:26:09.191Z,58.43
2022-10-20T01:28:57.878Z,59.00
2022-10-20T01:31:42.456Z,59.63
2022-10-20T01:34:27.686Z,60.45
2022-10-20T01:37:01.975Z,62.29
2022-10-20T01:40:10.117Z,64.08
2022-10-20T01:42:42.564Z,63.97
2022-10-20T01:45:14.867Z,63.25
2022-10-20T01:47:44.756Z,63.38
2022-10-20T01:50:15.634Z,63.00
2022-10-20T01:52:44.098Z,62.60
2022-10-20T01:55:18.235Z,62.06
2022-10-20T01:57:55.278Z,61.18
2022-10-20T02:00:24.183Z,61.01
2022-10-20T02:03:11.233Z,60.56
2022-10-20T02:06:34.088Z,60.20
2022-10-20T02:09:08.892Z,58.77
2022-10-20T02:11:44.569Z,58.37
2022-10-20T02:14:16.461Z,58.67
2022-10-20T02:16:52.378Z,59.10
2022-10-20T02:19:24.960Z,59.68
2022-10-20T02:21:55.415Z,60.18
2022-10-20T02:24:28.986Z,60.71
2022-10-20T02:27:01.783Z,61.91
2022-10-20T02:29:35.793Z,63.28
2022-10-20T02:32:04.726Z,63.34
2022-10-20T02:34:33.137Z,63.13
2022-10-20T02:37:01.574Z,62.67
2022-10-20T02:39:29.814Z,62.13
2022-10-20T02:41:58.122Z,61.80
2022-10-20T02:44:26.302Z,61.55
2022-10-20T02:46:54.514Z,61.09
2022-10-20T02:49:22.932Z,60.58
2022-10-20T02:51:51.536Z,60.57
2022-10-20T02:54:19.827Z,60.21
2022-10-20T02:56:47.987Z,59.36
2022-10-20T02:59:17.139Z,58.23
2022-10-20T03:01:45.741Z,58.18
2022-10-20T03:04:14.873Z,58.74
2022-10-20T03:06:43.147Z,59.25
2022-10-20T03:09:11.571Z,59.80
2022-10-20T03:11:39.837Z,60.47
2022-10-20T03:14:08.021Z,61.06
2022-10-20T03:16:36.394Z,62.23
2022-10-20T03:19:06.296Z,63.72
2022-10-20T03:21:35.675Z,63.72
2022-10-20T03:24:04.208Z,63.18
2022-10-20T03:26:33.268Z,62.65
2022-10-20T03:29:01.475Z,62.28
2022-10-20T03:31:29.769Z,62.02
2022-10-20T03:33:58.182Z,61.90
2022-10-20T03:36:26.345Z,61.52
2022-10-20T03:38:54.563Z,61.32
2022-10-20T03:41:22.793Z,61.07
2022-10-20T03:43:50.964Z,60.89
2022-10-20T03:46:19.146Z,61.12
2022-10-20T03:48:47.307Z,61.15
2022-10-20T03:51:15.841Z,61.01
2022-10-20T03:53:44.241Z,60.62
2022-10-20T03:56:18.165Z,60.29
2022-10-20T03:58:46.869Z,60.22
2022-10-20T04:01:21.682Z,60.08
2022-10-20T04:03:50.003Z,60.13
2022-10-20T04:06:18.345Z,59.91
2022-10-20T04:08:46.646Z,59.05
2022-10-20T04:11:15.070Z,58.32
2022-10-20T04:13:43.591Z,58.45
2022-10-20T04:16:11.804Z,58.80
2022-10-20T04:18:40.031Z,59.40
2022-10-20T04:21:08.508Z,59.88
2022-10-20T04:23:36.733Z,60.68
2022-10-20T04:26:09.985Z,60.98
2022-10-20T04:28:38.685Z,62.02
2022-10-20T04:31:07.786Z,63.45
2022-10-20T04:33:36.479Z,63.28
2022-10-20T04:36:08.730Z,62.88
2022-10-20T04:38:37.128Z,62.56
2022-10-20T04:41:05.973Z,62.23
2022-10-20T04:43:34.701Z,61.92
2022-10-20T04:46:07.986Z,61.67
2022-10-20T04:48:38.045Z,61.58
2022-10-20T04:51:09.085Z,61.30
2022-10-20T04:53:37.725Z,61.08
2022-10-20T04:56:08.289Z,60.82
2022-10-20T04:58:36.527Z,61.31
2022-10-20T05:01:10.210Z,61.30
2022-10-20T05:03:38.613Z,59.14
2022-10-20T05:06:18.739Z,57.83
2022-10-20T05:08:49.911Z,57.83
2022-10-20T05:11:20.529Z,58.76
2022-10-20T05:13:49.020Z,59.40
2022-10-20T05:16:18.141Z,60.35
2022-10-20T05:18:47.450Z,60.66
2022-10-20T05:21:18.168Z,62.37
2022-10-20T05:23:46.884Z,64.69
2022-10-20T05:26:19.277Z,64.27
2022-10-20T05:28:48.295Z,63.78
2022-10-20T05:31:18.380Z,64.47
2022-10-20T05:33:52.728Z,62.89
2022-10-20T05:36:25.367Z,62.09
2022-10-20T05:38:55.541Z,61.25
2022-10-20T05:41:26.801Z,60.50
2022-10-20T05:43:58.051Z,59.35
2022-10-20T05:46:29.518Z,58.43
2022-10-20T05:49:00.049Z,58.61
2022-10-20T05:51:31.062Z,59.16
2022-10-20T05:53:59.838Z,59.98
2022-10-20T05:56:29.729Z,60.69
2022-10-20T05:58:58.363Z,62.25
2022-10-20T06:01:39.318Z,64.01
2022-10-20T06:04:08.881Z,64.03
2022-10-20T06:06:37.135Z,63.73
2022-10-20T06:09:07.534Z,63.59
2022-10-20T06:11:39.237Z,63.43
2022-10-20T06:14:08.842Z,63.18
2022-10-20T06:16:37.300Z,62.79
2022-10-20T06:19:06.862Z,62.41
2022-10-20T06:21:37.135Z,62.22
2022-10-20T06:24:06.831Z,61.84
2022-10-20T06:26:36.755Z,61.79
2022-10-20T06:29:07.801Z,61.49
2022-10-20T06:31:39.236Z,61.26
2022-10-20T06:34:10.096Z,61.13
2022-10-20T06:36:39.914Z,61.12
2022-10-20T06:39:11.559Z,61.07
2022-10-20T06:41:41.646Z,60.87
2022-10-20T06:44:10.073Z,60.66
2022-10-20T06:46:38.868Z,60.44
2022-10-20T06:49:08.249Z,60.24
2022-10-20T06:51:36.492Z,60.15
2022-10-20T06:54:05.807Z,60.01
2022-10-20T06:56:35.880Z,59.89
2022-10-20T06:59:04.656Z,59.74
2022-10-20T07:01:35.935Z,59.03
2022-10-20T07:04:11.547Z,58.21
2022-10-20T07:06:42.029Z,58.32
2022-10-20T07:09:16.830Z,59.02
2022-10-20T07:11:45.243Z,59.52
2022-10-20T07:14:15.064Z,60.22
2022-10-20T07:16:43.191Z,60.85
2022-10-20T07:19:11.655Z,61.87
2022-10-20T07:21:42.978Z,63.23
2022-10-20T07:24:14.492Z,63.30
2022-10-20T07:26:42.907Z,62.43
2022-10-20T07:29:12.207Z,62.23
2022-10-20T07:31:45.739Z,61.89
2022-10-20T07:34:26.197Z,61.33
2022-10-20T07:36:56.763Z,61.26
2022-10-20T07:39:25.890Z,61.06
2022-10-20T07:41:54.171Z,60.52
2022-10-20T07:44:23.363Z,60.12
2022-10-20T07:46:51.831Z,58.99
2022-10-20T07:52:08.490Z,58.05
2022-10-20T07:54:37.280Z,58.54
2022-10-20T07:57:05.478Z,58.79
2022-10-20T07:59:33.691Z,59.25
2022-10-20T08:02:02.177Z,59.52
2022-10-20T08:04:31.863Z,60.20
2022-10-20T08:07:00.938Z,60.48
2022-10-20T08:09:29.259Z,60.51
2022-10-20T08:11:57.849Z,60.70
2022-10-20T08:14:32.098Z,60.89
2022-10-20T08:17:04.324Z,61.02
2022-10-20T08:20:02.795Z,61.12
2022-10-20T08:22:25.192Z,61.22
2022-10-20T08:24:54.223Z,61.20
2022-10-20T08:27:22.434Z,61.45
2022-10-20T08:29:59.960Z,61.47
2022-10-20T08:32:37.961Z,60.92
2022-10-20T08:35:07.120Z,60.81
2022-10-20T08:37:36.792Z,60.27
2022-10-20T08:40:06.017Z,60.90
2022-10-20T08:42:39.088Z,60.95
2022-10-20T08:45:07.964Z,60.99
2022-10-20T08:47:38.416Z,60.69
2022-10-20T08:50:10.325Z,60.36
2022-10-20T08:52:41.824Z,60.20
2022-10-20T08:55:22.594Z,60.16
2022-10-20T08:57:50.937Z,59.80
2022-10-20T09:00:22.219Z,59.42
2022-10-20T09:02:51.125Z,59.02
2022-10-20T09:05:32.884Z,59.16
2022-10-20T09:08:01.219Z,58.73
2022-10-20T09:10:37.202Z,58.51
2022-10-20T09:13:24.256Z,58.49
2022-10-20T09:15:58.977Z,57.67
2022-10-20T09:18:27.400Z,56.88
2022-10-20T09:21:16.897Z,56.77
2022-10-20T09:23:49.436Z,56.55
2022-10-20T09:26:54.347Z,56.22
2022-10-20T09:29:35.718Z,56.47
2022-10-20T09:32:52.939Z,56.36
2022-10-20T09:35:28.239Z,55.85
2022-10-20T09:38:02.051Z,55.37
2022-10-20T09:40:31.193Z,55.22
2022-10-20T09:43:09.725Z,54.98
2022-10-20T09:45:47.744Z,54.99
2022-10-20T09:48:40.869Z,55.02
2022-10-20T09:51:15.604Z,54.68
2022-10-20T09:53:52.278Z,53.88
2022-10-20T09:56:44.340Z,53.95
2022-10-20T09:59:25.108Z,53.52
2022-10-20T10:02:16.779Z,53.17
2022-10-20T10:04:52.893Z,53.28
2022-10-20T10:07:27.132Z,53.31
2022-10-20T10:10:00.343Z,53.24
2022-10-20T10:12:32.530Z,53.11
2022-10-20T10:15:23.777Z,52.94
2022-10-20T10:17:52.117Z,53.03
2022-10-20T10:20:38.993Z,52.82
2022-10-20T10:23:25.177Z,52.77
2022-10-20T10:25:57.948Z,52.97
2022-10-20T10:28:36.123Z,52.91
2022-10-20T10:31:16.686Z,52.72
2022-10-20T10:33:45.073Z,51.75
2022-10-20T10:36:37.812Z,50.76
2022-10-20T10:39:07.774Z,50.51
2022-10-20T10:41:51.161Z,49.91
2022-10-20T10:44:37.862Z,47.87
2022-10-20T10:47:40.374Z,45.91
2022-10-20T10:50:18.281Z,45.79
2022-10-20T10:52:55.040Z,44.47
2022-10-20T10:55:47.692Z,43.15
2022-10-20T10:58:40.821Z,41.09
2022-10-20T11:01:17.257Z,40.89
2022-10-20T11:04:30.234Z,40.25
2022-10-20T11:07:35.421Z,39.25
2022-10-20T11:10:35.836Z,36.59
2022-10-20T11:13:31.874Z,34.54
2022-10-20T11:16:28.290Z,30.74
2022-10-20T11:19:11.919Z,27.03
2022-10-20T11:22:15.922Z,23.65
2022-10-20T11:25:11.717Z,22.38
2022-10-20T11:27:40.193Z,20.26
2022-10-20T11:30:19.484Z,20.09
2022-10-20T11:33:21.025Z,19.99
2022-10-20T11:35:55.636Z,17.79
2022-10-20T11:38:32.942Z,16.86
2022-10-20T11:41:07.289Z,16.44
2022-10-20T11:43:50.686Z,15.18
2022-10-20T11:46:51.313Z,14.84
2022-10-20T11:49:19.904Z,14.20
2022-10-20T11:51:58.888Z,13.47
2022-10-20T11:54:37.182Z,12.73
2022-10-20T11:57:29.625Z,12.08
2022-10-20T12:00:46.048Z,11.52
2022-10-20T12:03:16.947Z,10.70
2022-10-20T12:05:54.129Z,10.50
2022-10-20T12:08:30.512Z,10.12
2022-10-20T12:11:29.203Z,10.12
2022-10-20T12:14:17.456Z,10.00
2022-10-20T12:16:54.712Z,9.98
2022-10-20T12:19:29.904Z,10.16
2022-10-20T12:22:16.452Z,9.04
2022-10-20T12:24:50.539Z,9.00
2022-10-20T12:27:21.376Z,8.74
2022-10-20T12:30:04.258Z,8.60
2022-10-20T12:32:37.415Z,8.84
2022-10-20T12:35:12.212Z,8.52
2022-10-20T12:37:44.769Z,8.30
2022-10-20T12:40:15.300Z,8.09
2022-10-20T12:42:50.002Z,7.84
2022-10-20T12:45:18.175Z,7.84
2022-10-20T12:47:54.291Z,7.34
2022-10-20T12:50:45.425Z,7.53
2022-10-20T12:53:27.288Z,7.56
2022-10-20T12:56:14.481Z,7.31
2022-10-20T12:59:09.636Z,7.40
2022-10-20T13:02:09.858Z,7.38
2022-10-20T13:05:10.627Z,7.49
2022-10-20T13:07:52.605Z,7.39
2022-10-20T13:10:26.926Z,7.28
2022-10-20T13:13:01.191Z,7.11
2022-10-20T13:15:42.811Z,7.08
2022-10-20T13:18:11.562Z,7.06
2022-10-20T13:20:49.708Z,6.87
2022-10-20T13:23:42.682Z,7.04
2022-10-20T13:26:23.314Z,7.24
2022-10-20T13:28:55.437Z,7.31
2022-10-20T13:31:35.918Z,7.28
2022-10-20T13:34:19.592Z,7.32
2022-10-20T13:37:06.055Z,7.42
2022-10-20T13:39:52.651Z,7.45
2022-10-20T13:42:37.739Z,7.47
2022-10-20T13:45:31.112Z,7.62
2022-10-20T13:48:18.457Z,7.73
2022-10-20T13:50:54.627Z,7.82
2022-10-20T13:53:38.122Z,7.91
2022-10-20T13:56:24.771Z,7.93
2022-10-20T13:59:18.710Z,8.28
2022-10-20T14:01:50.521Z,9.04
2022-10-20T14:04:29.641Z,9.93
2022-10-20T14:07:17.357Z,10.92
2022-10-20T14:09:47.649Z,11.91
2022-10-20T14:12:26.007Z,12.85
2022-10-20T14:15:02.129Z,13.37
2022-10-20T14:17:30.790Z,14.18
2022-10-20T14:20:20.735Z,15.23
2022-10-20T14:22:49.875Z,16.17
2022-10-20T14:25:18.573Z,17.67
2022-10-20T14:27:47.602Z,18.69
2022-10-20T14:30:18.355Z,19.84
2022-10-20T14:32:48.220Z,20.89
2022-10-20T14:35:26.915Z,22.06
2022-10-20T14:38:06.891Z,23.10
2022-10-20T14:40:37.026Z,24.04
2022-10-20T14:43:13.321Z,25.62
2022-10-20T14:45:41.541Z,26.61
2022-10-20T14:48:16.134Z,27.54
2022-10-20T14:50:44.948Z,28.21
2022-10-20T14:53:16.617Z,29.47
2022-10-20T14:55:44.980Z,30.48
2022-10-20T14:58:58.333Z,31.57
2022-10-20T15:01:31.966Z,31.38
2022-10-20T15:04:04.741Z,33.38
2022-10-20T15:06:33.909Z,34.31
2022-10-20T15:09:03.763Z,35.59
2022-10-20T15:11:32.777Z,36.32
2022-10-20T15:14:01.114Z,37.13
2022-10-20T15:16:55.919Z,37.90
2022-10-20T15:19:36.631Z,37.69
2022-10-20T15:24:42.196Z,39.67
2022-10-20T15:27:16.880Z,40.75
2022-10-20T15:29:51.621Z,41.28
2022-10-20T15:32:19.984Z,41.96
2022-10-20T15:34:48.278Z,43.00
2022-10-20T15:37:16.690Z,43.69
2022-10-20T15:39:45.100Z,44.28
2022-10-20T15:42:13.363Z,44.94
2022-10-20T15:44:41.582Z,45.49
2022-10-20T15:47:11.390Z,46.21
2022-10-20T15:49:39.576Z,46.80
2022-10-20T15:52:09.443Z,47.41
2022-10-20T15:54:37.674Z,47.74
2022-10-20T15:57:06.080Z,48.25
2022-10-20T15:59:34.290Z,48.76
2022-10-20T16:02:02.804Z,49.31
2022-10-20T16:04:31.889Z,49.80
2022-10-20T16:07:02.766Z,50.32
2022-10-20T16:09:31.694Z,50.54
2022-10-20T16:12:00.001Z,51.01
2022-10-20T16:14:28.263Z,51.52
2022-10-20T16:16:58.929Z,52.02
2022-10-20T16:19:27.173Z,52.22
2022-10-20T16:21:55.328Z,52.68
2022-10-20T16:24:23.945Z,53.15
2022-10-20T16:26:52.926Z,53.43
2022-10-20T16:29:21.177Z,53.86
2022-10-20T16:31:49.457Z,54.20
2022-10-20T16:34:17.825Z,54.53
2022-10-20T16:36:46.262Z,54.63
2022-10-20T16:39:17.344Z,55.02
2022-10-20T16:41:47.071Z,55.12
2022-10-20T16:44:15.256Z,55.34
2022-10-20T16:46:43.820Z,55.45
2022-10-20T16:49:12.592Z,55.56
2022-10-20T16:51:40.852Z,55.63
2022-10-20T16:54:09.285Z,55.75
2022-10-20T16:56:37.937Z,55.95
2022-10-20T16:59:06.180Z,56.07
2022-10-20T17:01:34.924Z,56.16
2022-10-20T17:04:03.787Z,56.27
2022-10-20T17:06:32.315Z,56.40
2022-10-20T17:09:00.722Z,56.49
2022-10-20T17:11:30.673Z,56.75
2022-10-20T17:13:59.764Z,56.98
2022-10-20T17:16:33.872Z,57.08
2022-10-20T17:19:03.141Z,57.28
2022-10-20T17:21:32.880Z,57.54
2022-10-20T17:24:02.836Z,57.33
2022-10-20T17:26:31.647Z,57.03
2022-10-20T17:29:01.367Z,57.43
2022-10-20T17:31:30.694Z,57.64
2022-10-20T17:34:00.145Z,57.11
2022-10-20T17:36:29.714Z,57.45
2022-10-20T17:39:01.603Z,57.54
2022-10-20T17:41:30.489Z,58.19
2022-10-20T17:44:00.794Z,58.18
2022-10-20T17:46:29.472Z,58.69
2022-10-20T17:48:58.132Z,58.80
2022-10-20T17:51:29.027Z,59.00
2022-10-20T17:54:00.862Z,59.08
2022-10-20T17:56:31.583Z,59.16
2022-10-20T17:59:03.262Z,59.27
2022-10-20T18:01:40.057Z,59.31
2022-10-20T18:04:14.526Z,59.27
2022-10-20T18:06:45.022Z,59.48
2022-10-20T18:09:15.947Z,59.58
2022-10-20T18:11:48.525Z,59.42
2022-10-20T18:14:17.283Z,59.55
2022-10-20T18:16:46.494Z,58.06
2022-10-20T18:19:17.674Z,59.31
2022-10-20T18:21:46.998Z,58.97
2022-10-20T18:24:17.747Z,59.06
2022-10-20T18:26:46.956Z,59.89
2022-10-20T18:29:16.771Z,60.27
2022-10-20T18:31:47.013Z,60.44
2022-10-20T18:34:18.417Z,60.73
2022-10-20T18:36:47.383Z,60.72
2022-10-20T18:39:16.369Z,61.61
2022-10-20T18:41:45.812Z,62.98
2022-10-20T18:44:16.994Z,62.79
2022-10-20T18:46:47.079Z,61.41
2022-10-20T18:49:20.478Z,61.46
2022-10-20T18:51:50.798Z,59.50
2022-10-20T18:54:20.010Z,58.32
2022-10-20T18:56:48.350Z,57.75
2022-10-20T18:59:18.096Z,58.02
2022-10-20T19:01:48.421Z,58.07
2022-10-20T19:04:16.774Z,58.54
2022-10-20T19:06:47.714Z,58.81
2022-10-20T19:09:19.211Z,59.40
2022-10-20T19:14:18.637Z,59.66
2022-10-20T19:16:47.826Z,60.09
2022-10-20T19:19:16.892Z,60.44
2022-10-20T19:21:45.582Z,60.82
2022-10-20T19:24:20.859Z,62.06
2022-10-20T19:27:24.916Z,63.79
2022-10-20T19:29:44.029Z,62.88
2022-10-20T19:32:12.336Z,61.81
2022-10-20T19:34:41.564Z,61.29
2022-10-20T19:37:10.356Z,60.95
2022-10-20T19:39:41.376Z,60.41
2022-10-20T19:42:11.281Z,60.01
2022-10-20T19:44:40.159Z,58.56
2022-10-20T19:47:09.154Z,56.86
2022-10-20T19:49:38.022Z,56.91
2022-10-20T19:52:08.000Z,57.40
2022-10-20T19:54:36.382Z,57.86
2022-10-20T19:57:04.875Z,58.40
2022-10-20T19:59:33.440Z,58.70
2022-10-20T20:02:01.721Z,59.35
2022-10-20T20:04:30.314Z,59.88
2022-10-20T20:07:02.160Z,60.10
2022-10-20T20:09:31.241Z,60.35
2022-10-20T20:11:59.698Z,58.82
2022-10-20T20:14:28.163Z,60.19
2022-10-20T20:16:56.488Z,61.75
2022-10-20T20:19:24.986Z,63.26
2022-10-20T20:21:53.786Z,63.38
2022-10-20T20:24:22.051Z,63.07
2022-10-20T20:26:50.536Z,62.22
2022-10-20T20:29:18.776Z,60.29
2022-10-20T20:31:48.296Z,59.32
2022-10-20T20:34:16.997Z,58.67
2022-10-20T20:36:45.266Z,59.22
2022-10-20T20:39:13.667Z,59.80
2022-10-20T20:41:42.839Z,60.44
2022-10-20T20:44:11.270Z,60.67
2022-10-20T20:46:39.572Z,62.54
2022-10-20T20:49:07.798Z,64.85
2022-10-20T20:51:36.253Z,64.81
2022-10-20T20:54:04.713Z,65.05
2022-10-20T20:56:33.384Z,62.71
2022-10-20T20:59:01.951Z,60.32
2022-10-20T21:01:32.022Z,57.77
2022-10-20T21:04:04.703Z,57.55
2022-10-20T21:06:56.582Z,57.58
2022-10-20T21:09:21.314Z,57.70
2022-10-20T21:11:49.971Z,58.91
2022-10-20T21:14:18.465Z,59.70
2022-10-20T21:16:47.246Z,60.19
2022-10-20T21:19:15.932Z,62.59
2022-10-20T21:21:50.800Z,63.87
2022-10-20T21:24:19.499Z,62.93
2022-10-20T21:26:48.845Z,59.70
2022-10-20T21:29:17.711Z,58.43
2022-10-20T21:31:45.916Z,58.08
2022-10-20T21:34:14.212Z,58.63
2022-10-20T21:36:42.724Z,59.27
2022-10-20T21:39:15.949Z,60.05
2022-10-20T21:41:45.813Z,61.73
2022-10-20T21:44:15.069Z,62.86
2022-10-20T21:46:47.587Z,61.41
2022-10-20T21:49:17.366Z,59.99
2022-10-20T21:51:49.911Z,57.60
2022-10-20T21:56:50.186Z,57.58
2022-10-20T21:59:26.676Z,58.44
2022-10-20T22:01:57.804Z,59.09
2022-10-20T22:04:27.774Z,60.01
2022-10-20T22:06:56.775Z,61.58
2022-10-20T22:09:25.146Z,62.95
2022-10-20T22:11:56.776Z,63.12
2022-10-20T22:14:25.986Z,61.13
2022-10-20T22:16:55.757Z,61.35
2022-10-20T22:19:25.182Z,60.00
2022-10-20T22:21:54.537Z,58.33
2022-10-20T22:24:23.622Z,58.36
2022-10-20T22:26:53.062Z,58.76
2022-10-20T22:29:23.203Z,59.27
2022-10-20T22:31:51.680Z,60.24
2022-10-20T22:34:19.979Z,61.73
2022-10-20T22:36:48.184Z,63.33
2022-10-20T22:39:16.596Z,62.68
2022-10-20T22:41:44.864Z,62.73
